Time;durP1;ratioP1;P1;durP2;ratioP2;P2;SDS_P1;SDS_P2;PMS_P1;PMS_P2;Temp;Humidity;BMP_temperature;BMP_pressure;BME280_temperature;BME280_humidity;BME280_pressure;Samples;Min_cycle;Max_cycle;Signal;HPM_P1;HPM_P2
2024/03/22 00:02:18;;;;;;;18.95;10.38;;;;;;;;;;5093134;28;20031;-64
2024/03/22 00:04:43;;;;;;;18.33;10.40;;;;;;;;;;5091860;28;20449;-64
2024/03/22 00:07:08;;;;;;;22.48;10.85;;;;;;;;;;5094780;28;20106;-63
2024/03/22 00:09:34;;;;;;;21.45;10.27;;;;;;;;;;5095715;28;20417;-63
2024/03/22 00:11:59;;;;;;;19.30;10.10;;;;;;;;;;5096462;28;20100;-64
2024/03/22 00:14:24;;;;;;;20.40;10.13;;;;;;;;;;5103711;28;20051;-63
2024/03/22 00:16:50;;;;;;;23.45;10.13;;;;;;;;;;5111804;28;20020;-63
2024/03/22 00:19:15;;;;;;;22.75;10.95;;;;;;;;;;5095475;28;20446;-63
2024/03/22 00:21:41;;;;;;;21.33;10.13;;;;;;;;;;5096316;28;20036;-63
2024/03/22 00:24:06;;;;;;;17.73;10.40;;;;;;;;;;5102061;28;20094;-63
2024/03/22 00:26:31;;;;;;;25.98;10.95;;;;;;;;;;5115330;28;20453;-63
2024/03/22 00:28:58;;;;;;;19.63;10.18;;;;;;;;;;5114377;28;20119;-63
2024/03/22 00:31:24;;;;;;;20.27;10.43;;;;;;;;;;5115639;28;20031;-64
2024/03/22 00:33:49;;;;;;;21.20;10.57;;;;;;;;;;5109419;28;20028;-63
2024/03/22 00:36:14;;;;;;;20.83;9.80;;;;;;;;;;5094523;28;20445;-63
2024/03/22 00:38:40;;;;;;;17.45;9.93;;;;;;;;;;5095144;28;20039;-64
2024/03/22 00:41:06;;;;;;;21.63;10.65;;;;;;;;;;5093461;28;20052;-63
2024/03/22 00:43:31;;;;;;;19.23;10.32;;;;;;;;;;5078345;28;20024;-63
2024/03/22 00:45:58;;;;;;;19.83;10.88;;;;;;;;;;5096679;28;20030;-67
2024/03/22 00:48:23;;;;;;;18.60;10.05;;;;;;;;;;5113892;28;20026;-64
2024/03/22 00:50:49;;;;;;;20.13;10.43;;;;;;;;;;5114669;28;20019;-63
2024/03/22 00:53:14;;;;;;;22.55;10.13;;;;;;;;;;5114484;27;20481;-64
2024/03/22 00:55:40;;;;;;;20.15;9.75;;;;;;;;;;5096314;28;20120;-63
2024/03/22 00:58:05;;;;;;;18.50;9.65;;;;;;;;;;5110204;28;20027;-63
2024/03/22 01:00:30;;;;;;;20.90;10.32;;;;;;;;;;5114697;28;20031;-63
2024/03/22 01:02:56;;;;;;;21.73;9.95;;;;;;;;;;5115000;28;20032;-63
2024/03/22 01:05:21;;;;;;;18.85;10.30;;;;;;;;;;5098147;28;20020;-62
2024/03/22 01:07:47;;;;;;;24.45;10.23;;;;;;;;;;5094025;28;20023;-62
2024/03/22 01:10:12;;;;;;;22.35;9.50;;;;;;;;;;5094633;28;20427;-63
2024/03/22 01:12:38;;;;;;;19.83;9.70;;;;;;;;;;5095087;28;20032;-63
2024/03/22 01:15:05;;;;;;;25.45;10.52;;;;;;;;;;5093996;28;20039;-64
2024/03/22 01:17:30;;;;;;;21.98;10.07;;;;;;;;;;5093006;28;20061;-64
2024/03/22 01:19:55;;;;;;;24.00;10.70;;;;;;;;;;5094126;28;20020;-63
2024/03/22 01:22:21;;;;;;;21.48;10.40;;;;;;;;;;5092851;28;20039;-62
2024/03/22 01:24:46;;;;;;;23.02;10.07;;;;;;;;;;5102342;28;20029;-62
2024/03/22 01:27:12;;;;;;;20.13;11.25;;;;;;;;;;5114822;28;20404;-63
2024/03/22 01:29:37;;;;;;;19.88;10.05;;;;;;;;;;5114312;28;20027;-64
2024/03/22 01:32:03;;;;;;;17.65;10.30;;;;;;;;;;5113487;28;20459;-63
2024/03/22 01:34:28;;;;;;;23.45;11.27;;;;;;;;;;5106479;28;20032;-64
2024/03/22 01:36:53;;;;;;;18.75;9.93;;;;;;;;;;5093807;28;20459;-63
2024/03/22 01:39:21;;;;;;;22.08;10.80;;;;;;;;;;5093679;28;20110;-63
2024/03/22 01:41:49;;;;;;;21.30;10.85;;;;;;;;;;5093383;28;20043;-63
2024/03/22 01:44:15;;;;;;;19.55;10.48;;;;;;;;;;5097448;28;20047;-68
2024/03/22 01:46:41;;;;;;;25.73;10.35;;;;;;;;;;5112581;28;20034;-64
2024/03/22 01:49:09;;;;;;;23.42;10.73;;;;;;;;;;5112170;28;20031;-64
2024/03/22 01:51:34;;;;;;;22.23;10.05;;;;;;;;;;5113703;28;20054;-63
2024/03/22 01:54:01;;;;;;;17.45;10.40;;;;;;;;;;5110584;28;20079;-62
2024/03/22 01:56:27;;;;;;;22.67;9.93;;;;;;;;;;5092698;28;20027;-62
2024/03/22 01:58:52;;;;;;;22.35;10.43;;;;;;;;;;5103687;28;20034;-64
2024/03/22 02:01:18;;;;;;;21.13;10.35;;;;;;;;;;5103225;28;20161;-62
2024/03/22 02:03:43;;;;;;;19.67;10.10;;;;;;;;;;5093335;28;20366;-63
2024/03/22 02:06:09;;;;;;;17.73;10.40;;;;;;;;;;5093324;28;20020;-63
2024/03/22 02:08:35;;;;;;;21.40;11.15;;;;;;;;;;5102101;28;20012;-66
2024/03/22 02:13:44;;;;;;;19.05;9.95;;;;;;;;;;5113470;28;20031;-62
2024/03/22 02:16:10;;;;;;;19.55;10.75;;;;;;;;;;5111861;28;20156;-64
2024/03/22 02:18:35;;;;;;;23.13;10.07;;;;;;;;;;5111481;27;20243;-62
2024/03/22 02:21:01;;;;;;;20.70;10.60;;;;;;;;;;5112009;28;20073;-64
2024/03/22 02:23:31;;;;;;;22.25;10.80;;;;;;;;;;5113186;28;20116;-63
2024/03/22 02:25:57;;;;;;;25.55;10.85;;;;;;;;;;5113259;28;20019;-63
2024/03/22 02:28:22;;;;;;;23.02;11.00;;;;;;;;;;5105012;28;20109;-64
2024/03/22 02:30:48;;;;;;;16.35;10.15;;;;;;;;;;5093621;28;20042;-64
2024/03/22 02:33:13;;;;;;;25.73;11.00;;;;;;;;;;5092613;28;20119;-63
2024/03/22 02:35:38;;;;;;;23.77;11.05;;;;;;;;;;5091303;28;20028;-62
2024/03/22 02:38:23;;;;;;;18.98;9.70;;;;;;;;;;5098647;28;20421;-66
2024/03/22 02:40:49;;;;;;;23.90;10.32;;;;;;;;;;5109934;28;20019;-65
2024/03/22 02:43:14;;;;;;;20.70;11.32;;;;;;;;;;5111252;28;20023;-64
2024/03/22 02:45:40;;;;;;;17.92;10.35;;;;;;;;;;5094728;28;20024;-65
2024/03/22 02:48:06;;;;;;;21.52;11.00;;;;;;;;;;5112027;28;20015;-63
2024/03/22 02:50:35;;;;;;;21.80;10.23;;;;;;;;;;5111689;28;20457;-65
2024/03/22 02:53:00;;;;;;;26.40;10.63;;;;;;;;;;5111541;28;20128;-64
2024/03/22 02:55:26;;;;;;;22.23;11.27;;;;;;;;;;5111638;28;20059;-63
2024/03/22 02:57:51;;;;;;;22.05;11.10;;;;;;;;;;5107862;28;20027;-62
2024/03/22 03:00:18;;;;;;;26.80;11.35;;;;;;;;;;5092794;28;20078;-61
2024/03/22 03:02:43;;;;;;;24.60;10.68;;;;;;;;;;5091882;28;20443;-62
2024/03/22 03:05:09;;;;;;;23.58;11.07;;;;;;;;;;5092456;28;20039;-64
2024/03/22 03:07:35;;;;;;;23.60;11.57;;;;;;;;;;5093831;28;20024;-63
2024/03/22 03:10:00;;;;;;;21.83;10.40;;;;;;;;;;5111429;28;20087;-63
2024/03/22 03:12:26;;;;;;;26.80;11.20;;;;;;;;;;5109618;28;20422;-64
2024/03/22 03:14:51;;;;;;;23.33;11.45;;;;;;;;;;5112558;28;20172;-65
2024/03/22 03:17:16;;;;;;;20.08;10.93;;;;;;;;;;5111765;28;20070;-66
2024/03/22 03:19:42;;;;;;;20.75;11.45;;;;;;;;;;5092874;28;20024;-64
2024/03/22 03:22:07;;;;;;;18.33;11.43;;;;;;;;;;5091389;28;20112;-63
2024/03/22 03:24:33;;;;;;;23.52;11.40;;;;;;;;;;5074427;28;20465;-63
2024/03/22 03:26:58;;;;;;;26.95;13.00;;;;;;;;;;5091811;28;20623;-63
2024/03/22 03:29:23;;;;;;;26.58;11.73;;;;;;;;;;5106836;28;20411;-63
2024/03/22 03:31:49;;;;;;;26.70;11.38;;;;;;;;;;5112757;28;20023;-63
2024/03/22 03:34:15;;;;;;;25.17;12.02;;;;;;;;;;5112480;28;20031;-62
2024/03/22 03:36:40;;;;;;;26.48;11.65;;;;;;;;;;5109484;28;20051;-62
2024/03/22 03:39:05;;;;;;;23.30;12.48;;;;;;;;;;5097706;28;20110;-64
2024/03/22 03:41:31;;;;;;;24.08;12.13;;;;;;;;;;5095754;28;20020;-63
2024/03/22 03:43:56;;;;;;;22.98;11.55;;;;;;;;;;5095811;28;20027;-65
2024/03/22 03:46:21;;;;;;;22.02;11.75;;;;;;;;;;5096163;28;20047;-68
2024/03/22 03:48:47;;;;;;;26.27;12.45;;;;;;;;;;5106059;28;20068;-64
2024/03/22 03:51:12;;;;;;;22.83;12.00;;;;;;;;;;5115384;28;20051;-64
2024/03/22 03:53:38;;;;;;;24.95;12.27;;;;;;;;;;5116189;28;20099;-63
2024/03/22 03:56:03;;;;;;;22.27;12.55;;;;;;;;;;5115862;28;20032;-63
2024/03/22 03:58:29;;;;;;;21.88;12.10;;;;;;;;;;5107818;28;20023;-64
2024/03/22 04:00:54;;;;;;;31.60;12.95;;;;;;;;;;5095039;28;20024;-64
2024/03/22 04:03:19;;;;;;;21.60;12.30;;;;;;;;;;5095890;28;20024;-63
2024/03/22 04:05:45;;;;;;;27.52;13.77;;;;;;;;;;5096194;28;20035;-63
2024/03/22 04:08:10;;;;;;;26.98;13.65;;;;;;;;;;5099781;28;20048;-64
2024/03/22 04:10:35;;;;;;;27.27;13.85;;;;;;;;;;5116172;28;20019;-65
2024/03/22 04:13:01;;;;;;;26.10;13.93;;;;;;;;;;5114809;28;20023;-65
2024/03/22 04:15:27;;;;;;;27.67;14.50;;;;;;;;;;5114414;28;20022;-63
2024/03/22 04:17:53;;;;;;;26.15;14.35;;;;;;;;;;5113229;28;21932;-65
2024/03/22 04:20:18;;;;;;;23.80;13.73;;;;;;;;;;5095395;28;20028;-63
2024/03/22 04:22:43;;;;;;;23.20;13.27;;;;;;;;;;5111159;28;20080;-65
2024/03/22 04:25:09;;;;;;;27.52;13.65;;;;;;;;;;5115286;28;20103;-65
2024/03/22 04:27:37;;;;;;;27.88;13.77;;;;;;;;;;5114013;28;20020;-69
2024/03/22 04:30:03;;;;;;;28.02;14.82;;;;;;;;;;5093722;28;20085;-64
2024/03/22 04:32:30;;;;;;;24.90;16.27;;;;;;;;;;5094717;28;20016;-64
2024/03/22 04:34:55;;;;;;;23.70;20.63;;;;;;;;;;5094713;28;20028;-64
2024/03/22 04:37:21;;;;;;;31.15;19.23;;;;;;;;;;5095982;28;20361;-63
2024/03/22 04:39:46;;;;;;;32.55;27.10;;;;;;;;;;5111571;28;20051;-64
2024/03/22 04:42:11;;;;;;;1999.90;999.90;;;;;;;;;;5114971;28;20023;-63
2024/03/22 04:44:37;;;;;;;1999.90;999.90;;;;;;;;;;5113151;28;20149;-64
2024/03/22 04:47:02;;;;;;;1999.90;999.90;;;;;;;;;;5114269;28;20357;-58
2024/03/22 04:49:28;;;;;;;1999.90;999.90;;;;;;;;;;5101139;28;20035;-70
2024/03/22 04:51:53;;;;;;;1999.90;999.90;;;;;;;;;;5093222;28;20020;-70
2024/03/22 04:54:19;;;;;;;1999.90;999.90;;;;;;;;;;5093558;28;20056;-67
2024/03/22 04:56:44;;;;;;;38.17;28.17;;;;;;;;;;5096593;28;20046;-66
2024/03/22 04:59:09;;;;;;;29.55;22.23;;;;;;;;;;5114496;28;20026;-70
2024/03/22 05:01:35;;;;;;;34.67;23.17;;;;;;;;;;5097144;28;20019;-70
2024/03/22 05:04:00;;;;;;;26.63;20.98;;;;;;;;;;5114489;28;20115;-71
2024/03/22 05:06:26;;;;;;;22.55;19.60;;;;;;;;;;5113159;28;20035;-71
2024/03/22 05:08:51;;;;;;;21.95;19.67;;;;;;;;;;5096816;28;20399;-70
2024/03/22 05:11:17;;;;;;;23.02;17.13;;;;;;;;;;5114728;28;20026;-71
2024/03/22 05:13:42;;;;;;;19.75;13.63;;;;;;;;;;5114254;27;20035;-70
2024/03/22 05:16:07;;;;;;;27.38;13.73;;;;;;;;;;5113412;28;20456;-71
2024/03/22 05:18:33;;;;;;;23.25;13.77;;;;;;;;;;5094382;28;20020;-70
2024/03/22 05:20:58;;;;;;;25.08;12.85;;;;;;;;;;5093921;28;20323;-68
2024/03/22 05:23:24;;;;;;;22.52;12.65;;;;;;;;;;5093154;28;20380;-64
2024/03/22 05:25:49;;;;;;;17.50;12.68;;;;;;;;;;5103808;28;20028;-70
2024/03/22 05:28:15;;;;;;;24.95;12.88;;;;;;;;;;5098350;28;20028;-72
2024/03/22 05:30:40;;;;;;;21.25;13.15;;;;;;;;;;5088905;28;20043;-71
2024/03/22 05:33:05;;;;;;;21.10;12.82;;;;;;;;;;5113065;28;20044;-70
2024/03/22 05:35:31;;;;;;;22.25;12.50;;;;;;;;;;5114361;28;20026;-70
2024/03/22 05:37:56;;;;;;;30.73;13.43;;;;;;;;;;5094868;28;20414;-70
2024/03/22 05:40:22;;;;;;;21.13;12.52;;;;;;;;;;5112439;28;20413;-69
2024/03/22 05:42:47;;;;;;;21.25;12.65;;;;;;;;;;5113400;28;20137;-69
2024/03/22 05:45:12;;;;;;;23.88;12.63;;;;;;;;;;5114170;27;20031;-70
2024/03/22 05:47:38;;;;;;;26.75;13.75;;;;;;;;;;5103451;28;20024;-70
2024/03/22 05:50:06;;;;;;;22.85;12.82;;;;;;;;;;5092601;28;20036;-71
2024/03/22 05:52:33;;;;;;;25.88;13.40;;;;;;;;;;5097119;28;20465;-69
2024/03/22 05:54:58;;;;;;;24.27;13.13;;;;;;;;;;5114160;28;20044;-72
2024/03/22 05:57:24;;;;;;;20.25;13.13;;;;;;;;;;5105151;28;20073;-70
2024/03/22 05:59:49;;;;;;;17.50;12.70;;;;;;;;;;5091432;28;20036;-71
2024/03/22 06:02:15;;;;;;;25.52;13.57;;;;;;;;;;5092661;28;20024;-70
2024/03/22 06:04:41;;;;;;;28.05;13.32;;;;;;;;;;5092818;28;20035;-70
2024/03/22 06:07:06;;;;;;;28.83;13.45;;;;;;;;;;5097661;28;20019;-73
2024/03/22 06:09:45;;;;;;;31.35;14.10;;;;;;;;;;5110798;28;20420;-71
2024/03/22 06:12:11;;;;;;;16.75;13.00;;;;;;;;;;5113201;28;20029;-71
2024/03/22 06:14:36;;;;;;;26.23;13.30;;;;;;;;;;5112296;28;20042;-70
2024/03/22 06:17:03;;;;;;;21.50;12.80;;;;;;;;;;5098496;28;20054;-72
2024/03/22 06:19:28;;;;;;;20.77;13.45;;;;;;;;;;5112791;28;20248;-71
2024/03/22 06:21:54;;;;;;;25.25;11.93;;;;;;;;;;5113205;28;20024;-70
2024/03/22 06:24:19;;;;;;;27.00;13.38;;;;;;;;;;5112037;28;20636;-71
2024/03/22 06:26:45;;;;;;;21.50;12.65;;;;;;;;;;5092233;28;20028;-70
2024/03/22 06:29:10;;;;;;;24.38;13.05;;;;;;;;;;5074768;28;20507;-72
2024/03/22 06:31:36;;;;;;;26.02;13.45;;;;;;;;;;5092662;28;20354;-70
2024/03/22 06:34:04;;;;;;;22.88;13.00;;;;;;;;;;5093004;28;20085;-71
2024/03/22 06:36:32;;;;;;;24.40;12.88;;;;;;;;;;5092176;28;20469;-72
2024/03/22 06:38:57;;;;;;;25.50;14.90;;;;;;;;;;5111345;28;20095;-70
2024/03/22 06:41:22;;;;;;;27.50;14.23;;;;;;;;;;5113111;28;20131;-71
2024/03/22 06:43:48;;;;;;;25.65;14.35;;;;;;;;;;5112004;28;20259;-72
2024/03/22 06:46:13;;;;;;;24.30;14.20;;;;;;;;;;5112845;28;20023;-71
2024/03/22 06:48:38;;;;;;;25.63;14.47;;;;;;;;;;5110087;28;20757;-71
2024/03/22 06:51:04;;;;;;;27.33;15.02;;;;;;;;;;5098544;28;20253;-72
2024/03/22 06:53:29;;;;;;;22.42;14.05;;;;;;;;;;5091466;28;20466;-72
2024/03/22 06:55:55;;;;;;;25.90;14.00;;;;;;;;;;5092523;28;20040;-73
2024/03/22 06:58:21;;;;;;;24.38;13.60;;;;;;;;;;5108126;28;20111;-70
2024/03/22 07:00:46;;;;;;;21.63;13.10;;;;;;;;;;5111641;28;20027;-70
2024/03/22 07:03:11;;;;;;;23.80;12.02;;;;;;;;;;5112809;28;20452;-71
2024/03/22 07:05:37;;;;;;;17.90;11.00;;;;;;;;;;5112950;28;20065;-71
2024/03/22 07:08:02;;;;;;;19.57;11.27;;;;;;;;;;5096704;28;20324;-71
2024/03/22 07:10:27;;;;;;;18.83;11.98;;;;;;;;;;5092109;28;20355;-70
2024/03/22 07:12:54;;;;;;;21.85;12.70;;;;;;;;;;5096388;28;20036;-70
2024/03/22 07:15:21;;;;;;;20.92;12.40;;;;;;;;;;5116283;28;20032;-70
2024/03/22 07:17:46;;;;;;;22.00;12.32;;;;;;;;;;5100919;27;20418;-70
2024/03/22 07:20:11;;;;;;;21.90;13.45;;;;;;;;;;5096475;28;20115;-70
2024/03/22 07:22:37;;;;;;;25.07;13.53;;;;;;;;;;5096648;28;20024;-69
2024/03/22 07:25:02;;;;;;;21.95;11.20;;;;;;;;;;5096833;28;20245;-70
2024/03/22 07:27:31;;;;;;;20.65;11.82;;;;;;;;;;5097543;28;20161;-70
2024/03/22 07:29:56;;;;;;;17.67;9.43;;;;;;;;;;5095147;28;20024;-71
2024/03/22 07:32:22;;;;;;;16.42;9.90;;;;;;;;;;5096600;28;20023;-71
2024/03/22 07:34:47;;;;;;;15.05;9.43;;;;;;;;;;5097089;28;20015;-72
2024/03/22 07:37:13;;;;;;;14.75;8.38;;;;;;;;;;5096851;28;20028;-72
2024/03/22 07:39:38;;;;;;;17.93;9.33;;;;;;;;;;5096099;28;20070;-72
2024/03/22 07:42:03;;;;;;;18.30;9.15;;;;;;;;;;5095391;28;20248;-71
2024/03/22 07:44:29;;;;;;;16.30;8.75;;;;;;;;;;5096990;28;20090;-72
2024/03/22 07:46:54;;;;;;;14.63;8.55;;;;;;;;;;5100288;28;20067;-70
2024/03/22 07:49:20;;;;;;;22.45;8.75;;;;;;;;;;5116001;28;20016;-70
2024/03/22 07:51:45;;;;;;;16.45;8.13;;;;;;;;;;5116346;28;20054;-70
2024/03/22 07:54:11;;;;;;;18.27;8.88;;;;;;;;;;5101571;28;20055;-71
2024/03/22 07:56:36;;;;;;;14.40;8.10;;;;;;;;;;5101105;28;20115;-68
2024/03/22 07:59:01;;;;;;;12.73;7.70;;;;;;;;;;5113897;28;20019;-71
2024/03/22 08:01:27;;;;;;;18.92;8.73;;;;;;;;;;5115555;28;20023;-71
2024/03/22 08:03:53;;;;;;;15.35;9.00;;;;;;;;;;5114544;28;20051;-71
2024/03/22 08:06:18;;;;;;;14.77;9.50;;;;;;;;;;5114772;28;20411;-72
2024/03/22 08:08:44;;;;;;;23.33;10.07;;;;;;;;;;5112874;28;20028;-70
2024/03/22 08:11:09;;;;;;;12.63;8.82;;;;;;;;;;5115221;27;20461;-70
2024/03/22 08:13:35;;;;;;;13.07;9.75;;;;;;;;;;5115924;28;20032;-70
2024/03/22 08:16:00;;;;;;;19.15;9.85;;;;;;;;;;5115856;28;20473;-70
2024/03/22 08:18:26;;;;;;;15.18;9.23;;;;;;;;;;5099099;28;20024;-69
2024/03/22 08:20:51;;;;;;;15.05;8.70;;;;;;;;;;5094398;28;20023;-71
2024/03/22 08:23:20;;;;;;;21.02;9.43;;;;;;;;;;5092872;28;20363;-71
2024/03/22 08:25:45;;;;;;;25.60;11.98;;;;;;;;;;5088729;28;20023;-67
2024/03/22 08:28:11;;;;;;;25.27;9.45;;;;;;;;;;5092749;28;20111;-67
2024/03/22 08:30:39;;;;;;;17.02;8.70;;;;;;;;;;5098466;28;20020;-70
2024/03/22 08:33:05;;;;;;;24.58;9.02;;;;;;;;;;5104863;28;20028;-63
2024/03/22 08:35:30;;;;;;;21.60;9.95;;;;;;;;;;5094132;28;20051;-72
2024/03/22 08:37:56;;;;;;;20.63;10.68;;;;;;;;;;5094730;28;20496;-73
2024/03/22 08:40:22;;;;;;;20.50;10.25;;;;;;;;;;5093274;28;20016;-68
2024/03/22 08:42:48;;;;;;;18.08;10.30;;;;;;;;;;5093578;28;20039;-71
2024/03/22 08:45:13;;;;;;;28.65;11.68;;;;;;;;;;5094518;28;20028;-71
2024/03/22 08:47:40;;;;;;;25.08;11.95;;;;;;;;;;5076241;28;20030;-69
2024/03/22 08:50:06;;;;;;;24.42;11.90;;;;;;;;;;5093391;28;20016;-71
2024/03/22 08:52:34;;;;;;;24.15;11.45;;;;;;;;;;5093592;28;20063;-72
2024/03/22 08:54:59;;;;;;;24.30;11.90;;;;;;;;;;5093154;28;20028;-70
2024/03/22 08:57:25;;;;;;;20.08;12.23;;;;;;;;;;5101106;28;20027;-70
2024/03/22 08:59:50;;;;;;;22.63;12.07;;;;;;;;;;5100351;28;20132;-71
2024/03/22 09:02:16;;;;;;;27.08;12.05;;;;;;;;;;5099837;28;20019;-69
2024/03/22 09:04:41;;;;;;;21.95;11.32;;;;;;;;;;5103612;28;20030;-73
2024/03/22 09:07:07;;;;;;;21.25;11.60;;;;;;;;;;5094133;28;20449;-76
2024/03/22 09:09:32;;;;;;;26.73;10.82;;;;;;;;;;5091765;28;20122;-71
2024/03/22 09:11:58;;;;;;;22.20;11.90;;;;;;;;;;5085591;28;20035;-65
2024/03/22 09:14:23;;;;;;;23.95;10.85;;;;;;;;;;5099044;27;20454;-67
2024/03/22 09:16:48;;;;;;;22.63;10.60;;;;;;;;;;5083936;28;20120;-71
2024/03/22 09:19:14;;;;;;;21.77;10.45;;;;;;;;;;5108566;28;20115;-74
2024/03/22 09:21:39;;;;;;;20.88;10.52;;;;;;;;;;5110101;28;20023;-71
2024/03/22 09:24:05;;;;;;;20.00;10.60;;;;;;;;;;5103806;28;20461;-68
2024/03/22 09:26:32;;;;;;;23.55;10.60;;;;;;;;;;5087428;28;20132;-71
2024/03/22 09:28:57;;;;;;;17.52;10.10;;;;;;;;;;5090097;28;20104;-70
2024/03/22 09:31:22;;;;;;;16.42;9.18;;;;;;;;;;5099663;28;20056;-71
2024/03/22 09:33:48;;;;;;;22.27;10.18;;;;;;;;;;5077229;28;20047;-71
2024/03/22 09:36:13;;;;;;;23.83;9.57;;;;;;;;;;5095597;28;20032;-72
2024/03/22 09:38:39;;;;;;;23.67;10.30;;;;;;;;;;5095847;28;20024;-72
2024/03/22 09:41:04;;;;;;;21.73;10.38;;;;;;;;;;5103368;28;20123;-69
2024/03/22 09:43:32;;;;;;;18.77;9.90;;;;;;;;;;5110456;28;20438;-75
2024/03/22 09:45:57;;;;;;;21.83;10.35;;;;;;;;;;5113707;28;20020;-68
2024/03/22 09:48:23;;;;;;;17.42;9.57;;;;;;;;;;5105922;28;20505;-73
2024/03/22 09:50:49;;;;;;;21.45;9.45;;;;;;;;;;5113085;28;20043;-67
2024/03/22 09:53:21;;;;;;;22.55;10.27;;;;;;;;;;5100552;28;20082;-68
2024/03/22 09:55:48;;;;;;;18.80;9.68;;;;;;;;;;5092211;28;20059;-69
2024/03/22 09:58:13;;;;;;;21.48;9.82;;;;;;;;;;5097128;28;20026;-69
2024/03/22 10:00:39;;;;;;;25.95;10.98;;;;;;;;;;5074982;28;20098;-69
2024/03/22 10:03:04;;;;;;;18.92;9.75;;;;;;;;;;5064322;28;20511;-65
2024/03/22 10:05:30;;;;;;;24.75;10.30;;;;;;;;;;5097462;28;20024;-70
2024/03/22 10:07:55;;;;;;;21.85;10.52;;;;;;;;;;5076856;28;20048;-66
2024/03/22 10:10:21;;;;;;;20.73;9.60;;;;;;;;;;5070077;28;20032;-68
2024/03/22 10:12:47;;;;;;;19.20;10.50;;;;;;;;;;5084600;28;20131;-67
2024/03/22 10:15:13;;;;;;;22.52;10.60;;;;;;;;;;5071090;28;20044;-67
2024/03/22 10:17:39;;;;;;;22.65;10.77;;;;;;;;;;5064624;28;20115;-69
2024/03/22 10:20:09;;;;;;;22.42;10.85;;;;;;;;;;5072374;28;20023;-69
2024/03/22 10:22:35;;;;;;;20.52;10.88;;;;;;;;;;5089812;28;20027;-71
2024/03/22 10:25:00;;;;;;;23.63;10.85;;;;;;;;;;5089922;28;20020;-74
2024/03/22 10:27:29;;;;;;;23.25;10.43;;;;;;;;;;5105597;28;20149;-77
2024/03/22 10:29:54;;;;;;;16.80;10.50;;;;;;;;;;5073076;28;20020;-76
2024/03/22 10:32:20;;;;;;;17.58;10.05;;;;;;;;;;5091140;28;20076;-73
2024/03/22 10:34:46;;;;;;;20.27;10.05;;;;;;;;;;5092480;28;20394;-75
2024/03/22 10:37:14;;;;;;;20.92;11.00;;;;;;;;;;5077325;28;20111;-69
2024/03/22 10:39:39;;;;;;;16.50;9.48;;;;;;;;;;5103808;28;20031;-76
2024/03/22 10:42:06;;;;;;;23.15;9.90;;;;;;;;;;5076081;28;20035;-75
2024/03/22 10:44:31;;;;;;;17.45;9.75;;;;;;;;;;5093390;28;20368;-76
2024/03/22 10:47:01;;;;;;;22.90;10.15;;;;;;;;;;5075816;28;20027;-76
2024/03/22 10:49:28;;;;;;;20.55;9.82;;;;;;;;;;5097268;28;20494;-77
2024/03/22 10:52:01;;;;;;;21.60;9.95;;;;;;;;;;5093944;28;20442;-76
2024/03/22 10:54:33;;;;;;;16.55;9.93;;;;;;;;;;5093397;28;20078;-77
2024/03/22 10:56:59;;;;;;;15.43;8.30;;;;;;;;;;5102624;28;20023;-77
2024/03/22 10:59:24;;;;;;;25.48;9.27;;;;;;;;;;5093243;28;20016;-76
2024/03/22 11:01:50;;;;;;;20.70;8.70;;;;;;;;;;5097100;28;20024;-76
2024/03/22 11:04:17;;;;;;;14.93;8.88;;;;;;;;;;5106748;28;20020;-76
2024/03/22 11:06:47;;;;;;;21.42;9.90;;;;;;;;;;5110061;28;20031;-70
2024/03/22 11:09:18;;;;;;;15.32;7.82;;;;;;;;;;5098666;28;20020;-69
2024/03/22 11:11:44;;;;;;;22.92;9.02;;;;;;;;;;5104207;28;20020;-73
2024/03/22 11:14:09;;;;;;;13.05;7.55;;;;;;;;;;5074462;28;20422;-66
2024/03/22 11:16:35;;;;;;;18.60;8.00;;;;;;;;;;5095423;28;20102;-66
2024/03/22 11:19:00;;;;;;;23.77;8.40;;;;;;;;;;5091548;28;20024;-68
2024/03/22 11:21:25;;;;;;;19.70;8.68;;;;;;;;;;5111904;28;20114;-63
2024/03/22 11:23:51;;;;;;;18.98;8.02;;;;;;;;;;5112041;28;20020;-68
2024/03/22 11:26:16;;;;;;;14.65;8.60;;;;;;;;;;5070533;28;20024;-66
2024/03/22 11:28:42;;;;;;;17.25;8.60;;;;;;;;;;5068248;28;20023;-68
2024/03/22 11:31:07;;;;;;;17.83;8.15;;;;;;;;;;5091864;28;20035;-66
2024/03/22 11:33:33;;;;;;;19.08;7.53;;;;;;;;;;5090473;28;20036;-70
2024/03/22 11:35:59;;;;;;;19.98;8.63;;;;;;;;;;5089121;28;20020;-65
2024/03/22 11:38:30;;;;;;;19.17;8.32;;;;;;;;;;5078825;28;20412;-72
2024/03/22 11:40:57;;;;;;;22.02;9.00;;;;;;;;;;5087416;28;20020;-66
2024/03/22 11:43:22;;;;;;;15.07;8.13;;;;;;;;;;5092784;28;20746;-67
2024/03/22 11:45:48;;;;;;;14.77;7.88;;;;;;;;;;5073624;28;20048;-70
2024/03/22 11:48:13;;;;;;;19.17;8.75;;;;;;;;;;5106846;28;20019;-68
2024/03/22 11:50:39;;;;;;;16.88;9.18;;;;;;;;;;5111021;28;20046;-64
2024/03/22 11:53:08;;;;;;;18.15;8.32;;;;;;;;;;5093467;28;20458;-65
2024/03/22 11:55:35;;;;;;;16.25;8.60;;;;;;;;;;5105277;28;20028;-66
2024/03/22 11:58:00;;;;;;;24.15;8.23;;;;;;;;;;5090852;28;20021;-67
2024/03/22 12:00:27;;;;;;;14.25;8.05;;;;;;;;;;5091379;28;20028;-65
2024/03/22 12:02:53;;;;;;;15.20;7.95;;;;;;;;;;5095409;28;20028;-67
2024/03/22 12:05:18;;;;;;;16.23;8.70;;;;;;;;;;5090640;28;20354;-67
2024/03/22 12:07:44;;;;;;;15.73;9.20;;;;;;;;;;5100628;28;20032;-65
2024/03/22 12:10:10;;;;;;;19.08;9.15;;;;;;;;;;5113829;28;20398;-65
2024/03/22 12:12:36;;;;;;;15.30;9.77;;;;;;;;;;5093790;28;20029;-69
2024/03/22 12:15:02;;;;;;;16.73;9.63;;;;;;;;;;5093399;28;20416;-68
2024/03/22 12:17:30;;;;;;;17.98;9.13;;;;;;;;;;5093454;28;20023;-72
2024/03/22 12:19:55;;;;;;;17.58;9.00;;;;;;;;;;5096661;28;20019;-68
2024/03/22 12:22:22;;;;;;;21.05;9.52;;;;;;;;;;5114977;28;20031;-65
2024/03/22 12:24:47;;;;;;;19.95;8.55;;;;;;;;;;5114084;28;20034;-67
2024/03/22 12:27:12;;;;;;;18.67;9.13;;;;;;;;;;5103288;27;20024;-66
2024/03/22 12:29:38;;;;;;;17.25;8.20;;;;;;;;;;5114928;28;20095;-67
2024/03/22 12:32:06;;;;;;;14.32;7.82;;;;;;;;;;5097978;28;20445;-64
2024/03/22 12:34:33;;;;;;;18.45;8.73;;;;;;;;;;5092700;28;20044;-70
2024/03/22 12:36:59;;;;;;;18.23;7.78;;;;;;;;;;5097615;28;20049;-73
2024/03/22 12:39:25;;;;;;;18.55;8.02;;;;;;;;;;5113675;28;20365;-66
2024/03/22 12:41:50;;;;;;;16.90;8.32;;;;;;;;;;5095708;28;20020;-66
2024/03/22 12:44:15;;;;;;;14.57;7.75;;;;;;;;;;5092768;28;20020;-69
2024/03/22 12:46:43;;;;;;;18.80;7.70;;;;;;;;;;5078556;28;20024;-70
2024/03/22 12:49:09;;;;;;;17.40;7.47;;;;;;;;;;5102058;28;20024;-66
2024/03/22 12:51:37;;;;;;;16.17;7.65;;;;;;;;;;5098582;28;20042;-65
2024/03/22 12:54:03;;;;;;;16.25;7.63;;;;;;;;;;5092254;28;20376;-69
2024/03/22 12:56:29;;;;;;;16.23;7.80;;;;;;;;;;5094436;28;20119;-64
2024/03/22 12:58:55;;;;;;;18.48;8.23;;;;;;;;;;5074989;28;20037;-63
2024/03/22 13:01:20;;;;;;;18.45;7.60;;;;;;;;;;5092686;28;20358;-63
2024/03/22 13:03:46;;;;;;;17.30;7.32;;;;;;;;;;5093831;28;20080;-62
2024/03/22 13:06:11;;;;;;;17.38;7.97;;;;;;;;;;5092560;28;20039;-63
2024/03/22 13:08:38;;;;;;;15.00;7.00;;;;;;;;;;5092659;28;20020;-64
2024/03/22 13:11:03;;;;;;;15.38;7.13;;;;;;;;;;5093442;28;20076;-63
2024/03/22 13:13:29;;;;;;;17.00;6.78;;;;;;;;;;5112795;28;20032;-63
2024/03/22 13:15:56;;;;;;;18.85;7.43;;;;;;;;;;5095768;28;20065;-65
2024/03/22 13:18:21;;;;;;;11.82;7.40;;;;;;;;;;5112360;28;20075;-62
2024/03/22 13:20:47;;;;;;;14.30;7.35;;;;;;;;;;5114039;28;20028;-63
2024/03/22 13:23:13;;;;;;;16.48;7.10;;;;;;;;;;5113540;28;20448;-64
2024/03/22 13:25:38;;;;;;;15.32;7.10;;;;;;;;;;5114294;28;20438;-64
2024/03/22 13:28:05;;;;;;;16.70;7.80;;;;;;;;;;5099375;28;20028;-68
2024/03/22 13:30:30;;;;;;;19.98;7.28;;;;;;;;;;5084399;28;20047;-66
2024/03/22 13:32:56;;;;;;;18.65;7.72;;;;;;;;;;5095746;28;20472;-67
2024/03/22 13:35:21;;;;;;;16.48;7.30;;;;;;;;;;5114025;28;20122;-66
2024/03/22 13:37:47;;;;;;;10.93;6.90;;;;;;;;;;5094640;28;20290;-64
2024/03/22 13:40:12;;;;;;;14.27;6.65;;;;;;;;;;5105332;28;20103;-67
2024/03/22 13:42:37;;;;;;;16.05;6.72;;;;;;;;;;5101163;28;20024;-67
2024/03/22 13:45:03;;;;;;;12.75;6.82;;;;;;;;;;5094245;28;20354;-63
2024/03/22 13:47:30;;;;;;;18.23;6.93;;;;;;;;;;5113835;28;20030;-63
2024/03/22 13:49:55;;;;;;;13.65;6.93;;;;;;;;;;5103636;28;20385;-67
2024/03/22 13:52:21;;;;;;;19.80;7.43;;;;;;;;;;5088728;28;20019;-74
2024/03/22 13:54:46;;;;;;;15.27;6.50;;;;;;;;;;5092609;28;20454;-58
2024/03/22 13:57:12;;;;;;;17.95;6.47;;;;;;;;;;5093699;28;20016;-63
2024/03/22 13:59:39;;;;;;;13.88;6.22;;;;;;;;;;5107682;28;20107;-66
2024/03/22 14:02:05;;;;;;;12.88;6.43;;;;;;;;;;5113943;28;20019;-65
2024/03/22 14:04:32;;;;;;;10.13;6.00;;;;;;;;;;5108441;28;20050;-67
2024/03/22 14:06:57;;;;;;;11.13;6.32;;;;;;;;;;5095896;28;20020;-71
2024/03/22 14:09:23;;;;;;;13.75;6.13;;;;;;;;;;5091689;28;20039;-67
2024/03/22 14:11:48;;;;;;;10.68;6.25;;;;;;;;;;5091788;28;20020;-67
2024/03/22 14:14:14;;;;;;;12.77;6.10;;;;;;;;;;5092823;28;20035;-67
2024/03/22 14:16:40;;;;;;;12.73;6.10;;;;;;;;;;5094053;28;20031;-67